DNYO

Yola Airport

Yola, Nigeria
METAR DNYO 231900Z 24005KT 8000 TS BKN014 FEW020CB 31/23 Q1009
Observed Flight Rules
Apr-23 @ 19:00 UTC (4 hours ago) Marginal Visual Flight Rules
Wind Visibility Clouds Conditions
240° at 5 knots 7,998 meters
  • Broken at 1,400' AGL
  • Few at 2,000' AGL
  • Thunderstorm
Temperatures Readings
Current 31°C / 88°F
Dewpoint 23°C / 73°F
Humidity 62%
Altimeter 29.79" Hg
Pressure 1009 hPa
Elevation 174
METAR DNYO 231900Z 24005KT 8000 TS BKN014 FEW020CB 31/23 Q1009
Observed Flight Rules
Apr-23 @ 19:00 UTC
(4 hours ago)
MVFR
Wind Visibility
240° at 5 knots 7,998 meters
Clouds
  • Broken at 1,400' AGL
  • Few at 2,000' AGL
Conditions
  • Thunderstorm
Temperature Dewpoint
31°C / 88°F 23°C / 73°F
Humidity Altimeter Pressure
62% 29.79" Hg 1009 hPa